sensor_id;sensor_type;location;lat;lon;timestamp;pressure;altitude;pressure_sealevel;temperature;humidity
75359;BME280;64046;51.978;5.934;2022-12-20T00:01:44;101261.03;;;14.01;91.93
75359;BME280;64046;51.978;5.934;2022-12-20T00:04:13;101266.94;;;14.06;91.78
75359;BME280;64046;51.978;5.934;2022-12-20T00:06:42;101255.22;;;14.12;91.35
75359;BME280;64046;51.978;5.934;2022-12-20T00:09:11;101234.69;;;14.18;90.85
75359;BME280;64046;51.978;5.934;2022-12-20T00:11:41;101238.00;;;14.22;90.37
75359;BME280;64046;51.978;5.934;2022-12-20T00:14:13;101239.03;;;14.35;90.20
75359;BME280;64046;51.978;5.934;2022-12-20T00:16:42;101237.91;;;14.24;90.58
75359;BME280;64046;51.978;5.934;2022-12-20T00:19:11;101228.38;;;14.21;90.62
75359;BME280;64046;51.978;5.934;2022-12-20T00:21:41;101245.16;;;14.20;90.48
75359;BME280;64046;51.978;5.934;2022-12-20T00:24:10;101247.78;;;14.20;90.35
75359;BME280;64046;51.978;5.934;2022-12-20T00:26:39;101245.31;;;14.17;90.44
75359;BME280;64046;51.978;5.934;2022-12-20T00:29:11;101237.91;;;14.24;90.08
75359;BME280;64046;51.978;5.934;2022-12-20T00:31:41;101232.38;;;14.28;89.73
75359;BME280;64046;51.978;5.934;2022-12-20T00:34:10;101237.56;;;14.30;89.38
75359;BME280;64046;51.978;5.934;2022-12-20T00:36:39;101230.47;;;14.32;89.23
75359;BME280;64046;51.978;5.934;2022-12-20T00:39:09;101235.13;;;14.43;89.02
75359;BME280;64046;51.978;5.934;2022-12-20T00:41:38;101243.31;;;14.38;88.75
75359;BME280;64046;51.978;5.934;2022-12-20T00:44:07;101221.28;;;14.39;88.69
75359;BME280;64046;51.978;5.934;2022-12-20T00:46:39;101233.38;;;14.59;88.30
75359;BME280;64046;51.978;5.934;2022-12-20T00:49:09;101231.56;;;14.44;88.42
75359;BME280;64046;51.978;5.934;2022-12-20T00:51:38;101235.75;;;14.48;88.19
75359;BME280;64046;51.978;5.934;2022-12-20T00:54:07;101236.44;;;14.51;87.92
75359;BME280;64046;51.978;5.934;2022-12-20T00:56:36;101224.59;;;14.43;88.13
75359;BME280;64046;51.978;5.934;2022-12-20T00:59:05;101241.88;;;14.48;88.15
75359;BME280;64046;51.978;5.934;2022-12-20T01:01:34;101239.84;;;14.53;88.01
75359;BME280;64046;51.978;5.934;2022-12-20T01:04:06;101218.28;;;14.79;87.17
75359;BME280;64046;51.978;5.934;2022-12-20T01:06:36;101222.34;;;14.68;86.99
75359;BME280;64046;51.978;5.934;2022-12-20T01:09:05;101231.22;;;14.67;86.95
75359;BME280;64046;51.978;5.934;2022-12-20T01:11:36;101224.50;;;14.78;86.86
75359;BME280;64046;51.978;5.934;2022-12-20T01:14:06;101220.06;;;14.78;87.02
75359;BME280;64046;51.978;5.934;2022-12-20T01:16:38;101205.25;;;14.76;87.10
75359;BME280;64046;51.978;5.934;2022-12-20T01:19:11;101215.97;;;14.88;86.37
75359;BME280;64046;51.978;5.934;2022-12-20T01:21:41;101217.78;;;14.72;86.81
75359;BME280;64046;51.978;5.934;2022-12-20T01:24:13;101210.28;;;14.80;86.58
75359;BME280;64046;51.978;5.934;2022-12-20T01:26:43;101224.31;;;14.81;86.18
75359;BME280;64046;51.978;5.934;2022-12-20T01:29:13;101221.69;;;14.81;86.08
75359;BME280;64046;51.978;5.934;2022-12-20T01:31:44;101221.69;;;14.81;86.09
75359;BME280;64046;51.978;5.934;2022-12-20T01:34:17;101227.03;;;14.95;85.67
75359;BME280;64046;51.978;5.934;2022-12-20T01:36:46;101234.97;;;14.79;86.00
75359;BME280;64046;51.978;5.934;2022-12-20T01:39:16;101231.78;;;14.88;85.62
75359;BME280;64046;51.978;5.934;2022-12-20T01:41:45;101225.00;;;14.84;85.51
75359;BME280;64046;51.978;5.934;2022-12-20T01:47:13;101230.44;;;14.81;86.22
75359;BME280;64046;51.978;5.934;2022-12-20T01:49:47;101223.97;;;15.03;86.17
75359;BME280;64046;51.978;5.934;2022-12-20T01:52:22;101237.50;;;14.97;87.10
75359;BME280;64046;51.978;5.934;2022-12-20T01:54:55;101226.38;;;14.92;87.86
75359;BME280;64046;51.978;5.934;2022-12-20T01:57:28;101225.50;;;14.91;88.35
75359;BME280;64046;51.978;5.934;2022-12-20T02:00:00;101219.56;;;14.72;89.47
75359;BME280;64046;51.978;5.934;2022-12-20T02:02:40;101222.69;;;14.78;90.31
75359;BME280;64046;51.978;5.934;2022-12-20T02:05:13;101214.28;;;14.87;90.84
75359;BME280;64046;51.978;5.934;2022-12-20T02:07:46;101227.97;;;14.78;92.31
75359;BME280;64046;51.978;5.934;2022-12-20T02:10:17;101226.63;;;14.71;93.40
75359;BME280;64046;51.978;5.934;2022-12-20T02:12:47;101216.41;;;14.65;94.07
75359;BME280;64046;51.978;5.934;2022-12-20T02:15:29;101220.75;;;14.82;93.83
75359;BME280;64046;51.978;5.934;2022-12-20T02:18:08;101204.22;;;14.78;94.78
75359;BME280;64046;51.978;5.934;2022-12-20T02:20:57;101204.13;;;14.80;95.38
75359;BME280;64046;51.978;5.934;2022-12-20T02:29:36;101178.84;;;14.44;100.00
75359;BME280;64046;51.978;5.934;2022-12-20T02:32:15;101169.06;;;14.46;100.00
75359;BME280;64046;51.978;5.934;2022-12-20T02:34:45;101161.31;;;14.27;100.00
75359;BME280;64046;51.978;5.934;2022-12-20T02:37:15;101169.97;;;14.13;100.00
75359;BME280;64046;51.978;5.934;2022-12-20T02:39:45;101158.47;;;14.14;100.00
75359;BME280;64046;51.978;5.934;2022-12-20T02:42:18;101166.91;;;14.21;100.00
75359;BME280;64046;51.978;5.934;2022-12-20T02:44:53;101168.88;;;14.17;100.00
75359;BME280;64046;51.978;5.934;2022-12-20T02:47:41;101168.81;;;14.18;100.00
75359;BME280;64046;51.978;5.934;2022-12-20T02:50:11;101179.06;;;14.07;100.00
75359;BME280;64046;51.978;5.934;2022-12-20T02:52:41;101172.16;;;14.05;100.00
75359;BME280;64046;51.978;5.934;2022-12-20T02:55:10;101164.09;;;14.08;100.00
75359;BME280;64046;51.978;5.934;2022-12-20T02:57:44;101163.94;;;14.27;100.00
75359;BME280;64046;51.978;5.934;2022-12-20T03:00:17;101160.56;;;14.25;100.00
75359;BME280;64046;51.978;5.934;2022-12-20T03:02:51;101165.41;;;14.32;100.00
75359;BME280;64046;51.978;5.934;2022-12-20T03:05:35;101156.03;;;14.27;100.00
75359;BME280;64046;51.978;5.934;2022-12-20T03:08:06;101154.75;;;14.18;100.00
75359;BME280;64046;51.978;5.934;2022-12-20T03:10:36;101151.28;;;14.17;100.00
75359;BME280;64046;51.978;5.934;2022-12-20T03:13:06;101155.00;;;14.13;100.00
75359;BME280;64046;51.978;5.934;2022-12-20T03:15:38;101155.94;;;14.12;100.00
75359;BME280;64046;51.978;5.934;2022-12-20T03:18:10;101151.28;;;14.33;100.00
75359;BME280;64046;51.978;5.934;2022-12-20T03:20:39;101150.00;;;14.09;100.00
75359;BME280;64046;51.978;5.934;2022-12-20T03:23:09;101152.53;;;14.10;100.00
75359;BME280;64046;51.978;5.934;2022-12-20T03:25:38;101146.47;;;14.08;100.00
75359;BME280;64046;51.978;5.934;2022-12-20T03:28:10;101142.91;;;14.09;100.00
75359;BME280;64046;51.978;5.934;2022-12-20T03:30:40;101144.56;;;14.12;100.00
75359;BME280;64046;51.978;5.934;2022-12-20T03:33:11;101140.75;;;14.33;100.00
75359;BME280;64046;51.978;5.934;2022-12-20T03:35:41;101146.84;;;14.18;100.00
75359;BME280;64046;51.978;5.934;2022-12-20T03:38:11;101146.75;;;14.19;100.00
75359;BME280;64046;51.978;5.934;2022-12-20T03:40:40;101149.31;;;14.21;100.00
75359;BME280;64046;51.978;5.934;2022-12-20T03:43:12;101151.63;;;14.27;100.00
75359;BME280;64046;51.978;5.934;2022-12-20T03:45:41;101154.34;;;14.26;100.00
75359;BME280;64046;51.978;5.934;2022-12-20T03:48:13;101154.19;;;14.45;100.00
75359;BME280;64046;51.978;5.934;2022-12-20T03:50:43;101142.94;;;14.25;100.00
75359;BME280;64046;51.978;5.934;2022-12-20T03:53:12;101127.22;;;14.24;100.00
75359;BME280;64046;51.978;5.934;2022-12-20T03:55:42;101129.94;;;14.22;100.00
75359;BME280;64046;51.978;5.934;2022-12-20T03:58:11;101128.22;;;14.21;100.00
75359;BME280;64046;51.978;5.934;2022-12-20T04:00:41;101124.22;;;14.30;100.00
75359;BME280;64046;51.978;5.934;2022-12-20T04:03:36;101120.25;;;14.39;100.00
75359;BME280;64046;51.978;5.934;2022-12-20T04:06:06;101122.03;;;14.22;100.00
75359;BME280;64046;51.978;5.934;2022-12-20T04:08:35;101130.72;;;14.24;100.00
75359;BME280;64046;51.978;5.934;2022-12-20T04:11:04;101132.31;;;14.27;100.00
75359;BME280;64046;51.978;5.934;2022-12-20T04:14:06;101121.44;;;14.33;100.00
75359;BME280;64046;51.978;5.934;2022-12-20T04:16:35;101122.19;;;14.35;100.00
75359;BME280;64046;51.978;5.934;2022-12-20T04:19:08;101113.00;;;14.58;100.00
75359;BME280;64046;51.978;5.934;2022-12-20T04:21:41;101103.41;;;14.41;100.00
75359;BME280;64046;51.978;5.934;2022-12-20T04:24:12;101106.72;;;14.45;100.00
75359;BME280;64046;51.978;5.934;2022-12-20T04:27:07;101104.00;;;14.46;100.00
75359;BME280;64046;51.978;5.934;2022-12-20T04:29:37;101105.72;;;14.47;100.00
75359;BME280;64046;51.978;5.934;2022-12-20T04:32:09;101099.47;;;14.48;100.00
75359;BME280;64046;51.978;5.934;2022-12-20T04:34:41;101104.44;;;14.70;100.00
75359;BME280;64046;51.978;5.934;2022-12-20T04:37:10;101108.69;;;14.57;100.00
75359;BME280;64046;51.978;5.934;2022-12-20T04:39:46;101119.97;;;14.59;100.00
75359;BME280;64046;51.978;5.934;2022-12-20T04:42:25;101119.06;;;14.60;100.00
75359;BME280;64046;51.978;5.934;2022-12-20T04:44:55;101102.28;;;14.61;100.00
75359;BME280;64046;51.978;5.934;2022-12-20T04:47:27;101096.16;;;14.61;100.00
75359;BME280;64046;51.978;5.934;2022-12-20T04:50:00;101096.06;;;14.78;100.00
75359;BME280;64046;51.978;5.934;2022-12-20T04:52:29;101082.06;;;14.62;100.00
75359;BME280;64046;51.978;5.934;2022-12-20T04:55:11;101092.53;;;14.63;100.00
75359;BME280;64046;51.978;5.934;2022-12-20T04:57:40;101090.66;;;14.65;100.00
75359;BME280;64046;51.978;5.934;2022-12-20T05:00:10;101078.63;;;14.76;100.00
75359;BME280;64046;51.978;5.934;2022-12-20T05:02:42;101081.06;;;14.64;100.00
75359;BME280;64046;51.978;5.934;2022-12-20T05:05:17;101084.50;;;14.81;100.00
75359;BME280;64046;51.978;5.934;2022-12-20T05:07:51;101104.44;;;14.70;100.00
75359;BME280;64046;51.978;5.934;2022-12-20T05:10:21;101097.63;;;14.66;100.00
75359;BME280;64046;51.978;5.934;2022-12-20T05:12:51;101102.81;;;14.68;100.00
75359;BME280;64046;51.978;5.934;2022-12-20T05:15:30;101102.53;;;14.73;100.00
75359;BME280;64046;51.978;5.934;2022-12-20T05:18:00;101097.97;;;14.76;100.00
75359;BME280;64046;51.978;5.934;2022-12-20T05:20:42;101101.16;;;14.97;100.00
75359;BME280;64046;51.978;5.934;2022-12-20T05:23:11;101105.25;;;14.87;100.00
75359;BME280;64046;51.978;5.934;2022-12-20T05:26:02;101104.59;;;14.83;100.00
75359;BME280;64046;51.978;5.934;2022-12-20T05:28:48;101093.94;;;14.85;100.00
75359;BME280;64046;51.978;5.934;2022-12-20T05:31:17;101087.91;;;14.83;100.00
75359;BME280;64046;51.978;5.934;2022-12-20T05:33:46;101084.59;;;14.79;100.00
75359;BME280;64046;51.978;5.934;2022-12-20T05:36:19;101079.34;;;14.94;100.00
75359;BME280;64046;51.978;5.934;2022-12-20T05:38:49;101068.53;;;14.68;100.00
75359;BME280;64046;51.978;5.934;2022-12-20T05:41:19;101082.72;;;14.65;100.00
75359;BME280;64046;51.978;5.934;2022-12-20T05:43:51;101073.88;;;14.66;100.00
75359;BME280;64046;51.978;5.934;2022-12-20T05:46:20;101069.53;;;14.65;100.00
75359;BME280;64046;51.978;5.934;2022-12-20T05:48:58;101058.41;;;14.60;100.00
75359;BME280;64046;51.978;5.934;2022-12-20T05:51:30;101056.50;;;14.78;100.00
75359;BME280;64046;51.978;5.934;2022-12-20T05:54:12;101055.16;;;14.55;100.00
75359;BME280;64046;51.978;5.934;2022-12-20T05:56:48;101054.22;;;14.56;100.00
75359;BME280;64046;51.978;5.934;2022-12-20T05:59:22;101046.97;;;14.60;100.00
75359;BME280;64046;51.978;5.934;2022-12-20T06:01:51;101041.13;;;14.54;100.00
75359;BME280;64046;51.978;5.934;2022-12-20T06:04:22;101041.13;;;14.54;100.00
75359;BME280;64046;51.978;5.934;2022-12-20T06:06:54;101038.50;;;14.70;100.00
75359;BME280;64046;51.978;5.934;2022-12-20T06:09:24;101041.78;;;14.58;100.00
75359;BME280;64046;51.978;5.934;2022-12-20T06:12:01;101047.06;;;14.58;100.00
75359;BME280;64046;51.978;5.934;2022-12-20T06:14:32;101054.59;;;14.66;100.00
75359;BME280;64046;51.978;5.934;2022-12-20T06:17:02;101046.81;;;14.63;100.00
75359;BME280;64046;51.978;5.934;2022-12-20T06:19:32;101049.22;;;14.67;100.00
75359;BME280;64046;51.978;5.934;2022-12-20T06:22:04;101041.44;;;14.80;100.00
75359;BME280;64046;51.978;5.934;2022-12-20T06:24:41;101034.75;;;14.59;100.00
75359;BME280;64046;51.978;5.934;2022-12-20T06:27:10;101028.59;;;14.58;100.00
75359;BME280;64046;51.978;5.934;2022-12-20T06:29:40;101027.34;;;14.65;100.00
75359;BME280;64046;51.978;5.934;2022-12-20T06:32:14;101020.97;;;14.69;100.00
75359;BME280;64046;51.978;5.934;2022-12-20T06:34:44;101016.56;;;14.70;100.00
75359;BME280;64046;51.978;5.934;2022-12-20T06:37:16;101007.63;;;14.87;100.00
75359;BME280;64046;51.978;5.934;2022-12-20T06:39:45;101018.22;;;14.71;100.00
75359;BME280;64046;51.978;5.934;2022-12-20T06:42:15;101015.25;;;14.77;100.00
75359;BME280;64046;51.978;5.934;2022-12-20T06:44:46;101006.19;;;14.81;100.00
75359;BME280;64046;51.978;5.934;2022-12-20T06:47:15;101011.66;;;14.78;100.00
75359;BME280;64046;51.978;5.934;2022-12-20T06:49:45;101007.34;;;14.77;100.00
75359;BME280;64046;51.978;5.934;2022-12-20T06:52:23;101004.63;;;14.93;100.00
75359;BME280;64046;51.978;5.934;2022-12-20T06:54:54;101009.19;;;14.75;100.00
75359;BME280;64046;51.978;5.934;2022-12-20T06:57:24;100997.81;;;14.75;100.00
75359;BME280;64046;51.978;5.934;2022-12-20T06:59:54;101009.88;;;14.79;100.00
75359;BME280;64046;51.978;5.934;2022-12-20T07:02:23;101015.06;;;14.80;100.00
75359;BME280;64046;51.978;5.934;2022-12-20T07:04:53;100999.66;;;14.73;100.00
75359;BME280;64046;51.978;5.934;2022-12-20T07:07:25;101005.75;;;14.89;100.00
75359;BME280;64046;51.978;5.934;2022-12-20T07:09:54;101006.66;;;14.74;100.00
75359;BME280;64046;51.978;5.934;2022-12-20T07:12:24;101015.50;;;14.73;100.00
75359;BME280;64046;51.978;5.934;2022-12-20T07:14:53;101022.56;;;14.72;100.00
75359;BME280;64046;51.978;5.934;2022-12-20T07:17:23;101012.69;;;14.76;100.00
75359;BME280;64046;51.978;5.934;2022-12-20T07:19:52;101006.56;;;14.75;100.00
75359;BME280;64046;51.978;5.934;2022-12-20T07:22:24;101004.63;;;14.93;100.00
75359;BME280;64046;51.978;5.934;2022-12-20T07:24:53;101016.19;;;14.76;100.00
75359;BME280;64046;51.978;5.934;2022-12-20T07:27:22;101005.63;;;14.76;100.00
75359;BME280;64046;51.978;5.934;2022-12-20T07:29:52;101009.88;;;14.79;100.00
75359;BME280;64046;51.978;5.934;2022-12-20T07:32:21;101012.25;;;14.83;100.00
75359;BME280;64046;51.978;5.934;2022-12-20T07:34:51;101020.91;;;14.85;100.00
75359;BME280;64046;51.978;5.934;2022-12-20T07:37:20;101010.75;;;14.94;100.00
75359;BME280;64046;51.978;5.934;2022-12-20T07:39:52;101009.66;;;15.12;100.00
75359;BME280;64046;51.978;5.934;2022-12-20T07:42:21;101012.28;;;14.98;100.00
75359;BME280;64046;51.978;5.934;2022-12-20T07:44:52;101004.06;;;15.02;99.78
75359;BME280;64046;51.978;5.934;2022-12-20T07:47:21;101009.53;;;14.99;99.30
75359;BME280;64046;51.978;5.934;2022-12-20T07:49:51;101010.22;;;15.03;99.04
75359;BME280;64046;51.978;5.934;2022-12-20T07:52:23;101000.91;;;15.12;99.38
75359;BME280;64046;51.978;5.934;2022-12-20T07:55:01;101001.34;;;15.18;98.72
75359;BME280;64046;51.978;5.934;2022-12-20T07:57:35;101010.22;;;15.17;98.18
75359;BME280;64046;51.978;5.934;2022-12-20T08:00:08;101018.25;;;15.16;98.42
75359;BME280;64046;51.978;5.934;2022-12-20T08:02:44;101028.22;;;15.25;97.60
75359;BME280;64046;51.978;5.934;2022-12-20T08:05:16;101026.50;;;15.10;97.87
75359;BME280;64046;51.978;5.934;2022-12-20T08:07:46;101040.19;;;15.16;97.70
75359;BME280;64046;51.978;5.934;2022-12-20T08:10:18;101028.13;;;15.27;97.49
75359;BME280;64046;51.978;5.934;2022-12-20T08:12:48;101028.13;;;15.12;97.42
75359;BME280;64046;51.978;5.934;2022-12-20T08:15:18;101030.75;;;15.12;97.58
75359;BME280;64046;51.978;5.934;2022-12-20T08:17:48;101026.69;;;15.07;97.83
75359;BME280;64046;51.978;5.934;2022-12-20T08:20:17;101028.31;;;15.09;97.48
75359;BME280;64046;51.978;5.934;2022-12-20T08:22:47;101036.22;;;15.09;97.37
75359;BME280;64046;51.978;5.934;2022-12-20T08:25:19;101021.81;;;15.29;96.83
75359;BME280;64046;51.978;5.934;2022-12-20T08:27:49;101020.31;;;15.11;97.25
75359;BME280;64046;51.978;5.934;2022-12-20T08:30:18;101029.94;;;15.12;97.09
75359;BME280;64046;51.978;5.934;2022-12-20T08:32:48;101030.94;;;15.09;97.24
75359;BME280;64046;51.978;5.934;2022-12-20T08:35:17;101020.50;;;15.08;97.68
75359;BME280;64046;51.978;5.934;2022-12-20T08:37:46;101027.72;;;15.04;98.23
75359;BME280;64046;51.978;5.934;2022-12-20T08:40:19;101020.00;;;15.15;98.58
75359;BME280;64046;51.978;5.934;2022-12-20T08:42:48;101007.94;;;14.97;99.43
75359;BME280;64046;51.978;5.934;2022-12-20T08:45:18;101010.66;;;14.95;99.89
75359;BME280;64046;51.978;5.934;2022-12-20T08:47:47;101020.28;;;14.96;99.72
75359;BME280;64046;51.978;5.934;2022-12-20T08:50:17;101017.53;;;14.98;99.79
75359;BME280;64046;51.978;5.934;2022-12-20T08:52:47;101013.09;;;14.98;99.76
75359;BME280;64046;51.978;5.934;2022-12-20T08:55:19;101010.38;;;15.14;99.46
75359;BME280;64046;51.978;5.934;2022-12-20T08:57:48;101007.72;;;15.00;100.00
75359;BME280;64046;51.978;5.934;2022-12-20T09:00:18;101005.59;;;15.07;100.00
75359;BME280;64046;51.978;5.934;2022-12-20T09:02:47;101014.63;;;15.02;100.00
75359;BME280;64046;51.978;5.934;2022-12-20T09:05:17;101010.13;;;15.04;100.00
75359;BME280;64046;51.978;5.934;2022-12-20T09:07:46;101027.72;;;15.04;100.00
75359;BME280;64046;51.978;5.934;2022-12-20T09:10:18;101014.44;;;15.20;100.00
75359;BME280;64046;51.978;5.934;2022-12-20T09:12:47;101020.28;;;14.96;100.00
75359;BME280;64046;51.978;5.934;2022-12-20T09:15:16;101017.91;;;14.92;100.00
75359;BME280;64046;51.978;5.934;2022-12-20T09:17:46;101024.69;;;14.96;100.00
75359;BME280;64046;51.978;5.934;2022-12-20T09:20:15;101019.59;;;14.93;100.00
75359;BME280;64046;51.978;5.934;2022-12-20T09:22:45;101028.72;;;14.87;100.00
75359;BME280;64046;51.978;5.934;2022-12-20T09:25:14;101029.59;;;14.87;100.00
75359;BME280;64046;51.978;5.934;2022-12-20T09:27:46;101022.72;;;14.99;100.00
75359;BME280;64046;51.978;5.934;2022-12-20T09:30:16;101022.88;;;14.82;100.00
75359;BME280;64046;51.978;5.934;2022-12-20T09:32:45;101018.81;;;14.76;100.00
75359;BME280;64046;51.978;5.934;2022-12-20T09:35:15;101012.88;;;14.73;100.00
75359;BME280;64046;51.978;5.934;2022-12-20T09:37:44;101013.97;;;14.68;100.00
75359;BME280;64046;51.978;5.934;2022-12-20T09:40:16;101010.56;;;14.97;100.00
75359;BME280;64046;51.978;5.934;2022-12-20T09:42:50;101010.56;;;14.97;100.00
75359;BME280;64046;51.978;5.934;2022-12-20T09:45:24;101009.53;;;14.99;100.00
75359;BME280;64046;51.978;5.934;2022-12-20T09:47:54;101013.94;;;14.84;100.00
75359;BME280;64046;51.978;5.934;2022-12-20T09:50:35;100998.59;;;15.05;100.00
75359;BME280;64046;51.978;5.934;2022-12-20T09:53:15;100998.78;;;15.02;100.00
75359;BME280;64046;51.978;5.934;2022-12-20T09:55:54;100996.63;;;14.95;100.00
75359;BME280;64046;51.978;5.934;2022-12-20T09:58:40;101005.88;;;15.02;100.00
75359;BME280;64046;51.978;5.934;2022-12-20T10:01:16;101000.66;;;14.86;100.00
75359;BME280;64046;51.978;5.934;2022-12-20T10:03:48;100998.25;;;14.67;100.00
75359;BME280;64046;51.978;5.934;2022-12-20T10:06:24;101002.75;;;14.95;100.00
75359;BME280;64046;51.978;5.934;2022-12-20T10:08:58;100996.34;;;14.99;100.00
75359;BME280;64046;51.978;5.934;2022-12-20T10:11:38;100993.69;;;14.99;100.00
75359;BME280;64046;51.978;5.934;2022-12-20T10:14:23;100995.94;;;14.91;100.00
75359;BME280;64046;51.978;5.934;2022-12-20T10:16:59;100985.19;;;14.80;100.00
75359;BME280;64046;51.978;5.934;2022-12-20T10:19:56;100988.91;;;14.92;100.00
75359;BME280;64046;51.978;5.934;2022-12-20T10:22:35;100984.06;;;14.84;100.00
75359;BME280;64046;51.978;5.934;2022-12-20T10:25:14;100986.78;;;14.82;100.00
75359;BME280;64046;51.978;5.934;2022-12-20T10:27:45;100986.56;;;14.71;100.00
75359;BME280;64046;51.978;5.934;2022-12-20T10:30:21;100988.69;;;14.80;100.00
75359;BME280;64046;51.978;5.934;2022-12-20T10:32:52;100986.66;;;14.69;100.00
75359;BME280;64046;51.978;5.934;2022-12-20T10:35:24;100986.88;;;14.81;100.00
75359;BME280;64046;51.978;5.934;2022-12-20T10:38:00;100981.06;;;14.90;100.00
75359;BME280;64046;51.978;5.934;2022-12-20T10:40:33;100986.41;;;14.88;100.00
75359;BME280;64046;51.978;5.934;2022-12-20T10:43:04;100983.59;;;14.77;100.00
75359;BME280;64046;51.978;5.934;2022-12-20T10:45:38;100981.22;;;14.87;100.00
75359;BME280;64046;51.978;5.934;2022-12-20T10:48:28;100990.38;;;14.96;100.00
75359;BME280;64046;51.978;5.934;2022-12-20T10:51:00;100972.56;;;14.85;100.00
75359;BME280;64046;51.978;5.934;2022-12-20T10:53:31;100974.38;;;14.84;100.00
75359;BME280;64046;51.978;5.934;2022-12-20T10:56:15;100985.78;;;14.99;100.00
75359;BME280;64046;51.978;5.934;2022-12-20T10:58:55;100972.69;;;14.98;100.00
75359;BME280;64046;51.978;5.934;2022-12-20T11:01:30;100972.09;;;14.93;100.00
75359;BME280;64046;51.978;5.934;2022-12-20T11:04:01;100971.75;;;14.84;100.00
75359;BME280;64046;51.978;5.934;2022-12-20T11:06:41;100974.09;;;15.03;100.00
75359;BME280;64046;51.978;5.934;2022-12-20T11:09:28;100957.69;;;15.13;100.00
75359;BME280;64046;51.978;5.934;2022-12-20T11:12:01;100951.56;;;14.98;100.00
75359;BME280;64046;51.978;5.934;2022-12-20T11:14:32;100962.22;;;14.96;100.00
75359;BME280;64046;51.978;5.934;2022-12-20T11:17:17;100959.50;;;15.12;100.00
75359;BME280;64046;51.978;5.934;2022-12-20T11:20:20;100952.41;;;15.27;100.00
75359;BME280;64046;51.978;5.934;2022-12-20T11:23:01;100953.75;;;15.20;100.00
75359;BME280;64046;51.978;5.934;2022-12-20T11:25:49;100946.97;;;15.16;100.00
75359;BME280;64046;51.978;5.934;2022-12-20T11:28:34;100949.22;;;15.08;100.00
75359;BME280;64046;51.978;5.934;2022-12-20T11:31:15;100942.25;;;15.07;100.00
75359;BME280;64046;51.978;5.934;2022-12-20T11:34:01;100941.97;;;15.11;100.00
75359;BME280;64046;51.978;5.934;2022-12-20T11:36:45;100940.00;;;15.15;100.00
75359;BME280;64046;51.978;5.934;2022-12-20T11:39:28;100930.47;;;15.12;100.00
75359;BME280;64046;51.978;5.934;2022-12-20T11:42:03;100926.22;;;15.10;100.00
75359;BME280;64046;51.978;5.934;2022-12-20T11:44:48;100942.34;;;15.19;100.00
75359;BME280;64046;51.978;5.934;2022-12-20T11:47:33;100925.47;;;15.22;100.00
75359;BME280;64046;51.978;5.934;2022-12-20T11:50:35;100933.84;;;15.29;100.00
75359;BME280;64046;51.978;5.934;2022-12-20T11:53:11;100924.06;;;15.16;100.00
75359;BME280;64046;51.978;5.934;2022-12-20T11:55:46;100933.84;;;15.14;100.00
75359;BME280;64046;51.978;5.934;2022-12-20T11:58:19;100912.72;;;15.14;100.00
75359;BME280;64046;51.978;5.934;2022-12-20T12:00:53;100914.25;;;15.18;100.00
75359;BME280;64046;51.978;5.934;2022-12-20T12:03:29;100912.28;;;15.22;100.00
75359;BME280;64046;51.978;5.934;2022-12-20T12:06:06;100907.72;;;15.24;100.00
75359;BME280;64046;51.978;5.934;2022-12-20T12:08:41;100913.41;;;15.18;100.00
75359;BME280;64046;51.978;5.934;2022-12-20T12:11:16;100920.38;;;15.19;100.00
75359;BME280;64046;51.978;5.934;2022-12-20T12:13:47;100912.94;;;15.11;100.00
75359;BME280;64046;51.978;5.934;2022-12-20T12:16:19;100907.09;;;15.20;100.00
75359;BME280;64046;51.978;5.934;2022-12-20T12:18:52;100915.94;;;15.05;100.00
75359;BME280;64046;51.978;5.934;2022-12-20T12:21:26;100913.22;;;15.21;100.00
75359;BME280;64046;51.978;5.934;2022-12-20T12:24:02;100912.19;;;15.23;100.00
75359;BME280;64046;51.978;5.934;2022-12-20T12:26:34;100907.38;;;15.16;100.00
75359;BME280;64046;51.978;5.934;2022-12-20T12:29:10;100903.22;;;15.26;100.00
75359;BME280;64046;51.978;5.934;2022-12-20T12:31:43;100897.38;;;15.21;100.00
75359;BME280;64046;51.978;5.934;2022-12-20T12:34:31;100898.38;;;15.33;100.00
75359;BME280;64046;51.978;5.934;2022-12-20T12:40:38;100903.50;;;15.36;100.00
75359;BME280;64046;51.978;5.934;2022-12-20T12:43:36;100906.13;;;15.36;100.00
75359;BME280;64046;51.978;5.934;2022-12-20T12:46:11;100895.66;;;15.20;100.00
75359;BME280;64046;51.978;5.934;2022-12-20T12:48:44;100892.00;;;15.22;100.00
75359;BME280;64046;51.978;5.934;2022-12-20T12:51:21;100897.94;;;15.26;100.00
75359;BME280;64046;51.978;5.934;2022-12-20T12:54:04;100902.91;;;15.31;100.00
75359;BME280;64046;51.978;5.934;2022-12-20T12:56:44;100897.47;;;15.19;100.00
75359;BME280;64046;51.978;5.934;2022-12-20T13:02:33;100907.38;;;15.30;100.00
75359;BME280;64046;51.978;5.934;2022-12-20T13:08:15;100905.88;;;15.26;100.00
75359;BME280;64046;51.978;5.934;2022-12-20T13:11:00;100900.91;;;15.34;100.00
75359;BME280;64046;51.978;5.934;2022-12-20T13:13:30;100893.72;;;15.09;100.00
75359;BME280;64046;51.978;5.934;2022-12-20T13:16:11;100899.16;;;15.35;100.00
75359;BME280;64046;51.978;5.934;2022-12-20T13:18:57;100889.03;;;15.42;100.00
75359;BME280;64046;51.978;5.934;2022-12-20T13:21:45;100891.78;;;15.40;100.00
75359;BME280;64046;51.978;5.934;2022-12-20T13:24:36;100885.56;;;15.41;100.00
75359;BME280;64046;51.978;5.934;2022-12-20T13:27:22;100894.41;;;15.40;100.00
75359;BME280;64046;51.978;5.934;2022-12-20T13:30:23;100894.06;;;15.32;100.00
75359;BME280;64046;51.978;5.934;2022-12-20T13:33:16;100899.84;;;15.51;100.00
75359;BME280;64046;51.978;5.934;2022-12-20T13:35:59;100893.38;;;15.43;100.00